2018/12/17 13:00 VVNB 171300Z 31004KT 6000 NSC 17/12 Q1022 NOSIG
2018/12/17 13:00 VVDN 171300Z 34001KT 4000 -RA BR FEW006 SCT012 BKN050 21/20 Q1021 NOSIG
2018/12/17 13:00 VVTS 171300Z 17005KT 150V220 9999 SCT017 SCT050 29/25 Q1013 NOSIG
2018/12/17 13:00 VVPB 171300Z 26005KT 2000 -RA BR FEW005 SCT013 BKN040 20/20 Q1022 NOSIG

Powered by MinhViet JSC.